Time;durP1;ratioP1;P1;durP2;ratioP2;P2;SDS_P1;SDS_P2;PMS_P1;PMS_P2;Temp;Humidity;BMP_temperature;BMP_pressure;BME280_temperature;BME280_humidity;BME280_pressure;Samples;Min_cycle;Max_cycle;Signal;HPM_P1;HPM_P2
2021/07/30 00:00:59;;;;;;;9.48;3.78;;;;;;;;;;5092686;28;20470;-58
2021/07/30 00:03:25;;;;;;;4.13;3.25;;;;;;;;;;5093405;28;20055;-58
2021/07/30 00:05:53;;;;;;;3.78;2.83;;;;;;;;;;5093304;28;20016;-59
2021/07/30 00:08:20;;;;;;;5.28;3.55;;;;;;;;;;5093246;28;20085;-59
2021/07/30 00:10:46;;;;;;;5.68;2.72;;;;;;;;;;5092606;28;20055;-59
2021/07/30 00:13:13;;;;;;;5.05;3.80;;;;;;;;;;5093446;28;20351;-58
2021/07/30 00:15:39;;;;;;;5.18;3.38;;;;;;;;;;5096251;28;20043;-58
2021/07/30 00:18:05;;;;;;;4.70;3.00;;;;;;;;;;5096605;28;20040;-59
2021/07/30 00:20:33;;;;;;;5.03;3.03;;;;;;;;;;5096826;28;20362;-58
2021/07/30 00:22:59;;;;;;;5.32;3.25;;;;;;;;;;5096987;28;20024;-58
2021/07/30 00:25:25;;;;;;;5.00;3.13;;;;;;;;;;5096480;28;20250;-58
2021/07/30 00:27:51;;;;;;;4.88;2.85;;;;;;;;;;5096420;28;20103;-59
2021/07/30 00:30:17;;;;;;;4.57;2.75;;;;;;;;;;5096364;28;20024;-58
2021/07/30 00:32:43;;;;;;;8.15;3.35;;;;;;;;;;5096899;28;20099;-59
2021/07/30 00:35:09;;;;;;;5.07;3.17;;;;;;;;;;5096465;28;20112;-59
2021/07/30 00:37:36;;;;;;;4.35;3.22;;;;;;;;;;5096157;28;20489;-58
2021/07/30 00:40:02;;;;;;;3.92;3.22;;;;;;;;;;5096137;28;20347;-58
2021/07/30 00:42:32;;;;;;;5.82;3.13;;;;;;;;;;5096357;28;20499;-58
2021/07/30 00:45:01;;;;;;;5.28;3.75;;;;;;;;;;5096769;28;20024;-58
2021/07/30 00:47:28;;;;;;;6.35;3.67;;;;;;;;;;5096367;28;20031;-58
2021/07/30 00:49:55;;;;;;;6.00;3.63;;;;;;;;;;5096195;28;20024;-58
2021/07/30 00:52:21;;;;;;;7.93;3.78;;;;;;;;;;5096875;28;20032;-59
2021/07/30 00:54:47;;;;;;;4.85;3.75;;;;;;;;;;5096515;28;20377;-58
2021/07/30 00:57:13;;;;;;;7.68;3.95;;;;;;;;;;5096780;28;20024;-58
2021/07/30 00:59:40;;;;;;;4.03;3.53;;;;;;;;;;5096370;28;20085;-58
2021/07/30 01:02:06;;;;;;;6.50;3.25;;;;;;;;;;5096377;28;20032;-59
2021/07/30 01:04:32;;;;;;;6.35;4.50;;;;;;;;;;5095114;28;20023;-58
2021/07/30 01:06:58;;;;;;;6.32;4.15;;;;;;;;;;5095882;28;20389;-58
2021/07/30 01:09:24;;;;;;;7.10;4.07;;;;;;;;;;5096195;28;20016;-58
2021/07/30 01:11:50;;;;;;;6.88;4.53;;;;;;;;;;5096189;28;20040;-59
2021/07/30 01:14:16;;;;;;;6.70;3.60;;;;;;;;;;5096068;28;20166;-58
2021/07/30 01:16:42;;;;;;;6.38;3.38;;;;;;;;;;5096145;28;20457;-58
2021/07/30 01:19:18;;;;;;;5.30;4.20;;;;;;;;;;5096058;28;20020;-58
2021/07/30 01:21:45;;;;;;;6.43;4.40;;;;;;;;;;5096315;28;20028;-59
2021/07/30 01:24:11;;;;;;;6.80;5.30;;;;;;;;;;5095915;28;20020;-59
2021/07/30 01:26:37;;;;;;;7.72;5.20;;;;;;;;;;5095405;28;20024;-59
2021/07/30 01:29:03;;;;;;;7.25;5.10;;;;;;;;;;5095890;28;20527;-58
2021/07/30 01:31:29;;;;;;;6.85;4.70;;;;;;;;;;5095510;28;20055;-58
2021/07/30 01:33:55;;;;;;;5.82;4.95;;;;;;;;;;5095713;28;20032;-58
2021/07/30 01:36:21;;;;;;;7.65;4.47;;;;;;;;;;5095993;28;20070;-58
2021/07/30 01:38:47;;;;;;;6.18;5.57;;;;;;;;;;5095935;28;20039;-58
2021/07/30 01:41:15;;;;;;;7.65;4.95;;;;;;;;;;5096157;28;20039;-59
2021/07/30 01:43:42;;;;;;;6.68;4.57;;;;;;;;;;5095490;28;20028;-59
2021/07/30 01:46:08;;;;;;;5.75;4.78;;;;;;;;;;5096013;28;20016;-59
2021/07/30 01:48:34;;;;;;;5.47;4.93;;;;;;;;;;5096226;28;20392;-59
2021/07/30 01:51:01;;;;;;;7.13;4.43;;;;;;;;;;5095460;28;20032;-58
2021/07/30 01:53:27;;;;;;;5.85;4.90;;;;;;;;;;5094952;28;20020;-58
2021/07/30 01:55:56;;;;;;;7.93;5.03;;;;;;;;;;5095305;28;20064;-58
2021/07/30 01:58:22;;;;;;;5.95;4.38;;;;;;;;;;5095566;28;20024;-58
2021/07/30 02:00:48;;;;;;;6.43;4.13;;;;;;;;;;5095201;28;20054;-58
2021/07/30 02:03:14;;;;;;;6.30;4.68;;;;;;;;;;5095770;28;20020;-58
2021/07/30 02:05:40;;;;;;;5.57;4.60;;;;;;;;;;5095563;28;20020;-58
2021/07/30 02:08:06;;;;;;;6.10;4.30;;;;;;;;;;5095770;28;20450;-58
2021/07/30 02:10:33;;;;;;;5.05;4.55;;;;;;;;;;5094690;28;20081;-58
2021/07/30 02:15:44;;;;;;;6.75;4.68;;;;;;;;;;5094919;28;20035;-58
2021/07/30 02:18:10;;;;;;;4.53;3.45;;;;;;;;;;5095173;28;20031;-58
2021/07/30 02:20:37;;;;;;;5.20;4.70;;;;;;;;;;5094808;28;20032;-58
2021/07/30 02:23:03;;;;;;;7.55;4.80;;;;;;;;;;5095182;28;20078;-58
2021/07/30 02:25:29;;;;;;;5.75;5.13;;;;;;;;;;5095033;28;20032;-58
2021/07/30 02:27:58;;;;;;;6.28;4.47;;;;;;;;;;5094633;28;20530;-58
2021/07/30 02:30:24;;;;;;;4.47;4.07;;;;;;;;;;5094824;28;20101;-58
2021/07/30 02:32:50;;;;;;;8.27;4.22;;;;;;;;;;5094919;28;20028;-58
2021/07/30 02:35:16;;;;;;;6.63;4.57;;;;;;;;;;5095119;28;20035;-58
2021/07/30 02:37:42;;;;;;;4.85;3.92;;;;;;;;;;5093710;28;20035;-58
2021/07/30 02:40:08;;;;;;;5.03;3.78;;;;;;;;;;5094770;28;20047;-58
2021/07/30 02:42:34;;;;;;;6.07;3.67;;;;;;;;;;5094208;28;20039;-58
2021/07/30 02:45:00;;;;;;;6.05;4.47;;;;;;;;;;5094298;28;20127;-58
2021/07/30 02:47:26;;;;;;;4.70;3.63;;;;;;;;;;5094413;28;20052;-58
2021/07/30 02:49:54;;;;;;;5.18;3.58;;;;;;;;;;5094405;28;20096;-58
2021/07/30 02:52:20;;;;;;;4.45;3.78;;;;;;;;;;5094659;28;20052;-58
2021/07/30 02:54:46;;;;;;;4.82;3.88;;;;;;;;;;5094038;28;20057;-58
2021/07/30 02:57:12;;;;;;;5.05;3.80;;;;;;;;;;5094241;28;20020;-58
2021/07/30 02:59:38;;;;;;;6.80;4.18;;;;;;;;;;5094239;28;20024;-58
2021/07/30 03:02:04;;;;;;;4.40;3.40;;;;;;;;;;5093379;28;20028;-58
2021/07/30 03:04:30;;;;;;;8.57;4.05;;;;;;;;;;5094122;28;20445;-58
2021/07/30 03:06:56;;;;;;;4.47;3.47;;;;;;;;;;5094343;28;20103;-58
2021/07/30 03:09:22;;;;;;;5.07;4.05;;;;;;;;;;5094089;28;20103;-58
2021/07/30 03:11:48;;;;;;;5.65;3.42;;;;;;;;;;5094049;28;20467;-58
2021/07/30 03:14:14;;;;;;;8.75;4.10;;;;;;;;;;5094241;28;20051;-58
2021/07/30 03:16:40;;;;;;;8.05;4.88;;;;;;;;;;5093654;28;20023;-58
2021/07/30 03:19:06;;;;;;;4.78;4.00;;;;;;;;;;5094396;28;20078;-58
2021/07/30 03:21:32;;;;;;;5.72;3.65;;;;;;;;;;5094386;28;20040;-58
2021/07/30 03:23:58;;;;;;;4.78;3.65;;;;;;;;;;5092582;28;20027;-58
2021/07/30 03:26:24;;;;;;;5.28;3.53;;;;;;;;;;5094173;28;20031;-58
2021/07/30 03:28:50;;;;;;;4.97;3.80;;;;;;;;;;5093892;28;20031;-58
2021/07/30 03:31:16;;;;;;;4.68;3.55;;;;;;;;;;5093852;28;20481;-58
2021/07/30 03:33:42;;;;;;;5.18;3.17;;;;;;;;;;5094350;28;20107;-58
2021/07/30 03:36:09;;;;;;;5.00;3.42;;;;;;;;;;5093806;28;20063;-58
2021/07/30 03:38:35;;;;;;;5.32;4.60;;;;;;;;;;5093747;28;20022;-58
2021/07/30 03:41:04;;;;;;;5.20;3.58;;;;;;;;;;5093767;28;20140;-58
2021/07/30 03:43:30;;;;;;;4.82;4.03;;;;;;;;;;5094055;28;20087;-58
2021/07/30 03:46:01;;;;;;;4.25;3.47;;;;;;;;;;5093730;28;20421;-58
2021/07/30 03:48:27;;;;;;;6.18;4.68;;;;;;;;;;5094357;28;20032;-58
2021/07/30 03:50:53;;;;;;;8.40;4.05;;;;;;;;;;5096605;28;20028;-58
2021/07/30 03:53:22;;;;;;;5.30;4.20;;;;;;;;;;5080025;28;20119;-58
2021/07/30 03:55:48;;;;;;;6.45;3.50;;;;;;;;;;5097716;28;20028;-58
2021/07/30 03:58:14;;;;;;;5.57;3.65;;;;;;;;;;5096426;28;20016;-58
2021/07/30 04:00:40;;;;;;;5.35;4.38;;;;;;;;;;5096278;28;20051;-58
2021/07/30 04:03:06;;;;;;;6.90;4.57;;;;;;;;;;5096592;28;20051;-58
2021/07/30 04:05:32;;;;;;;9.18;4.70;;;;;;;;;;5097504;28;20406;-58
2021/07/30 04:07:58;;;;;;;6.18;4.45;;;;;;;;;;5097215;28;20028;-58
2021/07/30 04:10:26;;;;;;;4.65;4.05;;;;;;;;;;5097414;28;20027;-58
2021/07/30 04:12:52;;;;;;;5.15;4.65;;;;;;;;;;5098373;28;20050;-58
2021/07/30 04:15:18;;;;;;;6.30;4.57;;;;;;;;;;5097254;28;20097;-58
2021/07/30 04:17:44;;;;;;;5.63;4.45;;;;;;;;;;5097205;28;20024;-58
2021/07/30 04:20:11;;;;;;;6.43;5.68;;;;;;;;;;5097183;28;20055;-58
2021/07/30 04:22:37;;;;;;;7.80;5.47;;;;;;;;;;5097134;28;20036;-58
2021/07/30 04:25:03;;;;;;;5.57;4.90;;;;;;;;;;5097124;28;20027;-58
2021/07/30 04:27:29;;;;;;;8.90;5.43;;;;;;;;;;5097656;28;20031;-58
2021/07/30 04:29:55;;;;;;;6.10;4.75;;;;;;;;;;5097724;28;20437;-58
2021/07/30 04:32:21;;;;;;;5.95;5.00;;;;;;;;;;5097305;28;20056;-58
2021/07/30 04:34:47;;;;;;;5.80;5.13;;;;;;;;;;5095999;28;20351;-58
2021/07/30 04:37:13;;;;;;;7.18;5.72;;;;;;;;;;5078832;28;20081;-58
2021/07/30 04:39:39;;;;;;;10.15;6.20;;;;;;;;;;5097193;28;20370;-58
2021/07/30 04:42:06;;;;;;;7.20;5.68;;;;;;;;;;5097231;28;20032;-58
2021/07/30 04:44:34;;;;;;;9.23;5.65;;;;;;;;;;5097150;28;20054;-58
2021/07/30 04:47:02;;;;;;;9.07;6.05;;;;;;;;;;5096673;28;20595;-58
2021/07/30 04:49:28;;;;;;;7.80;5.60;;;;;;;;;;5096717;28;20031;-58
2021/07/30 04:51:54;;;;;;;6.57;5.85;;;;;;;;;;5096918;28;20028;-58
2021/07/30 04:54:20;;;;;;;6.47;5.45;;;;;;;;;;5096657;28;20073;-58
2021/07/30 04:56:46;;;;;;;9.88;6.22;;;;;;;;;;5097110;28;20051;-58
2021/07/30 04:59:12;;;;;;;7.95;6.35;;;;;;;;;;5097012;28;20024;-58
2021/07/30 05:01:42;;;;;;;9.45;6.32;;;;;;;;;;5095684;28;20350;-58
2021/07/30 05:04:08;;;;;;;7.43;5.35;;;;;;;;;;5096335;28;20055;-58
2021/07/30 05:06:37;;;;;;;7.03;6.30;;;;;;;;;;5096397;28;20020;-58
2021/07/30 05:09:04;;;;;;;12.40;7.18;;;;;;;;;;5095059;28;20078;-58
2021/07/30 05:11:30;;;;;;;6.72;5.30;;;;;;;;;;5096359;28;20072;-58
2021/07/30 05:13:56;;;;;;;7.28;6.20;;;;;;;;;;5095073;28;20051;-58
2021/07/30 05:16:25;;;;;;;6.38;5.22;;;;;;;;;;5096446;28;20066;-58
2021/07/30 05:18:51;;;;;;;5.70;5.10;;;;;;;;;;5096282;28;20043;-58
2021/07/30 05:21:17;;;;;;;10.13;5.78;;;;;;;;;;5096846;28;20438;-58
2021/07/30 05:23:44;;;;;;;6.35;5.32;;;;;;;;;;5094713;28;20119;-58
2021/07/30 05:26:10;;;;;;;8.55;5.18;;;;;;;;;;5095907;28;20031;-58
2021/07/30 05:28:36;;;;;;;10.65;6.13;;;;;;;;;;5096339;28;20434;-58
2021/07/30 05:31:02;;;;;;;5.43;4.72;;;;;;;;;;5095936;28;20374;-58
2021/07/30 05:33:29;;;;;;;7.97;4.85;;;;;;;;;;5094761;28;20114;-58
2021/07/30 05:35:55;;;;;;;8.05;5.13;;;;;;;;;;5094781;28;20051;-58
2021/07/30 05:38:22;;;;;;;7.88;5.57;;;;;;;;;;5095718;28;20027;-58
2021/07/30 05:40:48;;;;;;;6.18;5.25;;;;;;;;;;5095314;28;20032;-58
2021/07/30 05:43:14;;;;;;;5.70;5.05;;;;;;;;;;5095542;28;20028;-58
2021/07/30 05:45:40;;;;;;;9.50;5.68;;;;;;;;;;5095737;28;20036;-58
2021/07/30 05:48:07;;;;;;;6.03;4.68;;;;;;;;;;5095466;28;20145;-58
2021/07/30 05:50:33;;;;;;;4.80;4.18;;;;;;;;;;5095292;28;20031;-58
2021/07/30 05:52:59;;;;;;;7.22;5.78;;;;;;;;;;5095511;28;20026;-58
2021/07/30 05:55:25;;;;;;;10.43;5.30;;;;;;;;;;5095394;28;20115;-58
2021/07/30 05:57:51;;;;;;;6.75;5.70;;;;;;;;;;5096172;28;20102;-58
2021/07/30 06:00:17;;;;;;;5.63;5.00;;;;;;;;;;5095331;28;20024;-58
2021/07/30 06:02:43;;;;;;;6.93;4.60;;;;;;;;;;5093713;28;20028;-58
2021/07/30 06:05:09;;;;;;;6.15;4.72;;;;;;;;;;5095277;28;20039;-58
2021/07/30 06:07:35;;;;;;;7.35;5.05;;;;;;;;;;5094762;28;20029;-58
2021/07/30 06:10:01;;;;;;;8.48;6.13;;;;;;;;;;5095070;28;20028;-58
2021/07/30 06:12:28;;;;;;;6.38;4.63;;;;;;;;;;5094850;28;20143;-58
2021/07/30 06:14:55;;;;;;;6.93;5.35;;;;;;;;;;5094906;28;20119;-58
2021/07/30 06:17:21;;;;;;;6.40;4.93;;;;;;;;;;5093666;28;20016;-58
2021/07/30 06:19:47;;;;;;;10.93;4.32;;;;;;;;;;5095160;28;20017;-58
2021/07/30 06:22:13;;;;;;;5.65;4.45;;;;;;;;;;5095118;28;20110;-58
2021/07/30 06:24:39;;;;;;;6.82;4.55;;;;;;;;;;5093529;28;20028;-58
2021/07/30 06:27:05;;;;;;;7.60;4.07;;;;;;;;;;5095157;28;20056;-59
2021/07/30 06:29:32;;;;;;;5.35;4.30;;;;;;;;;;5093499;28;20055;-58
2021/07/30 06:31:59;;;;;;;6.35;5.20;;;;;;;;;;5095092;28;20512;-59
2021/07/30 06:34:25;;;;;;;6.30;4.15;;;;;;;;;;5093404;28;20031;-59
2021/07/30 06:36:54;;;;;;;5.22;3.80;;;;;;;;;;5095134;28;20330;-58
2021/07/30 06:39:24;;;;;;;6.95;4.35;;;;;;;;;;5094842;28;20024;-58
2021/07/30 06:41:53;;;;;;;6.93;4.90;;;;;;;;;;5094430;28;20039;-58
2021/07/30 06:44:19;;;;;;;5.32;4.22;;;;;;;;;;5094338;28;20020;-58
2021/07/30 06:46:45;;;;;;;4.88;3.75;;;;;;;;;;5095131;28;20054;-58
2021/07/30 06:49:11;;;;;;;5.93;4.65;;;;;;;;;;5094319;28;20458;-58
2021/07/30 06:51:37;;;;;;;8.68;5.43;;;;;;;;;;5094935;28;20032;-58
2021/07/30 06:54:03;;;;;;;6.45;4.60;;;;;;;;;;5094271;28;20354;-58
2021/07/30 06:56:29;;;;;;;7.90;4.35;;;;;;;;;;5094189;28;20020;-58
2021/07/30 06:58:56;;;;;;;6.13;4.65;;;;;;;;;;5094774;28;20461;-58
2021/07/30 07:01:22;;;;;;;9.85;4.38;;;;;;;;;;5093968;28;20059;-58
2021/07/30 07:03:48;;;;;;;6.35;4.40;;;;;;;;;;5094224;28;20020;-58
2021/07/30 07:06:15;;;;;;;6.88;4.78;;;;;;;;;;5094137;28;20016;-58
2021/07/30 07:08:41;;;;;;;4.75;4.22;;;;;;;;;;5094371;28;20020;-58
2021/07/30 07:11:07;;;;;;;6.38;4.55;;;;;;;;;;5094046;28;20048;-58
2021/07/30 07:13:33;;;;;;;5.82;4.20;;;;;;;;;;5093934;28;20024;-58
2021/07/30 07:15:59;;;;;;;4.88;3.78;;;;;;;;;;5076509;28;20030;-58
2021/07/30 07:18:25;;;;;;;7.00;3.70;;;;;;;;;;5092731;28;20032;-58
2021/07/30 07:21:03;;;;;;;4.93;4.43;;;;;;;;;;5092621;28;20131;-58
2021/07/30 07:23:29;;;;;;;5.65;4.75;;;;;;;;;;5092852;28;20024;-58
2021/07/30 07:26:02;;;;;;;7.80;4.82;;;;;;;;;;5094133;28;20024;-58
2021/07/30 07:28:28;;;;;;;5.30;4.30;;;;;;;;;;5093964;28;20522;-58
2021/07/30 07:30:54;;;;;;;6.20;4.70;;;;;;;;;;5093488;28;20488;-58
2021/07/30 07:33:20;;;;;;;6.57;4.50;;;;;;;;;;5094256;28;20369;-58
2021/07/30 07:35:46;;;;;;;5.57;4.10;;;;;;;;;;5094607;28;20020;-59
2021/07/30 07:38:12;;;;;;;6.93;4.50;;;;;;;;;;5094310;28;20434;-58
2021/07/30 07:40:38;;;;;;;5.90;4.45;;;;;;;;;;5093966;28;20028;-58
2021/07/30 07:43:07;;;;;;;7.93;4.65;;;;;;;;;;5094085;28;20032;-58
2021/07/30 07:45:33;;;;;;;6.88;4.50;;;;;;;;;;5093790;28;20027;-58
2021/07/30 07:47:59;;;;;;;5.97;4.38;;;;;;;;;;5093701;28;20020;-59
2021/07/30 07:50:25;;;;;;;5.50;3.78;;;;;;;;;;5094227;28;20020;-59
2021/07/30 07:52:51;;;;;;;7.15;4.03;;;;;;;;;;5093756;28;20032;-59
2021/07/30 07:55:17;;;;;;;6.07;3.83;;;;;;;;;;5092385;28;20020;-58
2021/07/30 07:57:43;;;;;;;6.65;3.72;;;;;;;;;;5093597;28;20028;-59
2021/07/30 08:00:10;;;;;;;6.22;3.53;;;;;;;;;;5093145;28;20048;-59
2021/07/30 08:02:36;;;;;;;7.80;3.83;;;;;;;;;;5094034;28;20051;-58
2021/07/30 08:05:02;;;;;;;5.60;2.90;;;;;;;;;;5093815;28;20527;-59
2021/07/30 08:07:28;;;;;;;5.13;3.75;;;;;;;;;;5093397;28;20028;-59
2021/07/30 08:09:54;;;;;;;5.45;3.63;;;;;;;;;;5093997;28;20020;-59
2021/07/30 08:12:20;;;;;;;4.50;3.22;;;;;;;;;;5092065;28;20396;-58
2021/07/30 08:14:49;;;;;;;4.93;3.75;;;;;;;;;;5093330;28;20059;-59
2021/07/30 08:17:15;;;;;;;3.63;2.47;;;;;;;;;;5093742;28;20028;-59
2021/07/30 08:19:42;;;;;;;4.97;2.65;;;;;;;;;;5094021;28;20070;-59
2021/07/30 08:22:11;;;;;;;6.75;3.35;;;;;;;;;;5093635;28;20028;-59
2021/07/30 08:24:37;;;;;;;4.55;3.72;;;;;;;;;;5092918;28;20028;-59
2021/07/30 08:27:06;;;;;;;4.65;3.05;;;;;;;;;;5093674;28;20088;-59
2021/07/30 08:29:32;;;;;;;4.78;3.22;;;;;;;;;;5093261;28;20385;-59
2021/07/30 08:31:58;;;;;;;5.07;3.30;;;;;;;;;;5092899;28;20107;-58
2021/07/30 08:34:24;;;;;;;4.78;2.53;;;;;;;;;;5092520;28;20047;-59
2021/07/30 08:36:51;;;;;;;4.97;3.35;;;;;;;;;;5095964;28;20028;-59
2021/07/30 08:39:20;;;;;;;5.25;3.97;;;;;;;;;;5095692;28;20342;-59
2021/07/30 08:41:50;;;;;;;5.93;3.87;;;;;;;;;;5097330;28;20032;-59
2021/07/30 08:44:16;;;;;;;4.95;3.35;;;;;;;;;;5096617;28;20377;-59
2021/07/30 08:46:42;;;;;;;4.65;3.55;;;;;;;;;;5096589;28;20024;-59
2021/07/30 08:49:09;;;;;;;3.88;3.25;;;;;;;;;;5095468;28;20031;-59
2021/07/30 08:51:36;;;;;;;4.43;3.38;;;;;;;;;;5097238;28;20028;-59
2021/07/30 08:54:02;;;;;;;3.60;2.70;;;;;;;;;;5096337;28;20527;-59
2021/07/30 08:56:28;;;;;;;4.85;3.45;;;;;;;;;;5096569;28;20024;-59
2021/07/30 08:58:54;;;;;;;6.28;3.20;;;;;;;;;;5096394;28;20024;-59
2021/07/30 09:01:20;;;;;;;5.70;3.67;;;;;;;;;;5096423;28;20063;-59
2021/07/30 09:03:46;;;;;;;4.40;3.42;;;;;;;;;;5096510;28;20071;-59
2021/07/30 09:06:13;;;;;;;4.97;3.80;;;;;;;;;;5096623;28;20024;-59
2021/07/30 09:08:38;;;;;;;5.03;3.42;;;;;;;;;;5096237;28;20031;-59
2021/07/30 09:11:04;;;;;;;5.53;3.80;;;;;;;;;;5096572;28;20044;-59
2021/07/30 09:13:32;;;;;;;4.63;3.05;;;;;;;;;;5097022;28;20024;-59
2021/07/30 09:16:03;;;;;;;4.35;3.45;;;;;;;;;;5096165;28;20027;-59
2021/07/30 09:18:32;;;;;;;5.32;3.40;;;;;;;;;;5096117;28;20021;-59
2021/07/30 09:21:16;;;;;;;4.88;3.80;;;;;;;;;;5094747;28;20036;-59
2021/07/30 09:23:49;;;;;;;5.22;3.38;;;;;;;;;;5096334;28;20039;-59
2021/07/30 09:26:29;;;;;;;6.65;3.65;;;;;;;;;;5096530;28;20016;-59
2021/07/30 09:28:55;;;;;;;4.60;3.45;;;;;;;;;;5096256;28;20047;-59
2021/07/30 09:31:26;;;;;;;4.57;3.30;;;;;;;;;;5096295;28;20109;-59
2021/07/30 09:33:53;;;;;;;3.65;3.08;;;;;;;;;;5094701;28;20530;-59
2021/07/30 09:36:19;;;;;;;4.72;3.65;;;;;;;;;;5096353;28;20377;-59
2021/07/30 09:38:59;;;;;;;3.95;2.83;;;;;;;;;;5095374;28;20047;-59
2021/07/30 09:41:25;;;;;;;5.20;3.25;;;;;;;;;;5096045;28;20039;-59
2021/07/30 09:43:51;;;;;;;4.63;3.78;;;;;;;;;;5095474;28;20107;-59
2021/07/30 09:46:17;;;;;;;5.15;3.65;;;;;;;;;;5095239;28;20033;-59
2021/07/30 09:48:50;;;;;;;5.03;3.33;;;;;;;;;;5095516;28;20016;-59
2021/07/30 09:51:16;;;;;;;6.05;3.72;;;;;;;;;;5095844;28;20461;-59
2021/07/30 09:53:44;;;;;;;5.30;3.17;;;;;;;;;;5095964;28;20024;-59
2021/07/30 09:56:12;;;;;;;4.57;3.67;;;;;;;;;;5095365;28;20023;-59
2021/07/30 09:58:40;;;;;;;4.25;3.78;;;;;;;;;;5095547;28;20016;-59
2021/07/30 10:01:06;;;;;;;5.88;4.13;;;;;;;;;;5095043;28;20028;-59
2021/07/30 10:03:33;;;;;;;3.88;3.10;;;;;;;;;;5095141;28;20043;-59
2021/07/30 10:05:59;;;;;;;4.82;3.78;;;;;;;;;;5095238;28;20020;-59
2021/07/30 10:08:25;;;;;;;5.10;3.72;;;;;;;;;;5095175;28;20024;-59
2021/07/30 10:10:52;;;;;;;5.55;3.95;;;;;;;;;;5094639;28;20036;-59
2021/07/30 10:13:24;;;;;;;4.88;3.50;;;;;;;;;;5094231;28;20039;-59
2021/07/30 10:15:50;;;;;;;6.45;3.58;;;;;;;;;;5093705;28;20130;-59
2021/07/30 10:18:20;;;;;;;4.43;3.40;;;;;;;;;;5094816;28;20099;-59
2021/07/30 10:20:46;;;;;;;6.03;3.70;;;;;;;;;;5094777;28;20024;-58
2021/07/30 10:23:15;;;;;;;4.68;3.67;;;;;;;;;;5095097;28;20025;-59
2021/07/30 10:25:47;;;;;;;5.03;3.50;;;;;;;;;;5094645;28;20028;-59
2021/07/30 10:28:21;;;;;;;4.82;3.60;;;;;;;;;;5095289;28;20442;-59
2021/07/30 10:31:07;;;;;;;6.50;4.28;;;;;;;;;;5094649;28;20028;-59
2021/07/30 10:33:34;;;;;;;5.03;4.18;;;;;;;;;;5095133;28;20388;-59
2021/07/30 10:36:01;;;;;;;4.75;3.90;;;;;;;;;;5095293;28;20050;-59
2021/07/30 10:38:27;;;;;;;5.40;4.13;;;;;;;;;;5095064;28;20028;-59
2021/07/30 10:40:59;;;;;;;4.30;3.55;;;;;;;;;;5094396;28;20085;-59
2021/07/30 10:43:27;;;;;;;5.05;3.65;;;;;;;;;;5094757;28;20043;-59
2021/07/30 10:46:05;;;;;;;5.25;4.40;;;;;;;;;;5094209;28;20021;-59
2021/07/30 10:48:31;;;;;;;5.95;4.35;;;;;;;;;;5094338;28;20381;-59
2021/07/30 10:51:16;;;;;;;5.63;4.35;;;;;;;;;;5094315;28;20024;-59
2021/07/30 10:53:43;;;;;;;5.18;3.70;;;;;;;;;;5094893;28;20118;-59
2021/07/30 10:56:18;;;;;;;4.50;3.83;;;;;;;;;;5094467;28;20098;-59
2021/07/30 10:58:44;;;;;;;4.63;3.78;;;;;;;;;;5093452;28;20020;-59
2021/07/30 11:01:11;;;;;;;4.93;3.22;;;;;;;;;;5094202;28;20035;-59
2021/07/30 11:03:52;;;;;;;5.47;4.40;;;;;;;;;;5094132;28;20153;-59
2021/07/30 11:06:19;;;;;;;4.47;3.50;;;;;;;;;;5095013;28;20077;-59
2021/07/30 11:09:00;;;;;;;6.13;3.28;;;;;;;;;;5094286;28;20070;-59
2021/07/30 11:11:35;;;;;;;7.25;4.38;;;;;;;;;;5093982;28;20044;-59
2021/07/30 11:14:01;;;;;;;7.60;4.13;;;;;;;;;;5093963;28;20378;-59
2021/07/30 11:16:27;;;;;;;4.75;3.97;;;;;;;;;;5094275;28;20100;-59
2021/07/30 11:18:53;;;;;;;3.95;3.55;;;;;;;;;;5093722;28;20024;-59
2021/07/30 11:21:20;;;;;;;6.10;3.95;;;;;;;;;;5094148;28;20020;-59
2021/07/30 11:23:46;;;;;;;5.45;4.25;;;;;;;;;;5094417;28;20394;-59
2021/07/30 11:26:12;;;;;;;5.85;4.03;;;;;;;;;;5094688;28;20473;-59
2021/07/30 11:28:39;;;;;;;4.75;4.20;;;;;;;;;;5094386;28;20331;-59
2021/07/30 11:31:05;;;;;;;6.95;4.43;;;;;;;;;;5094145;28;20078;-59
2021/07/30 11:33:31;;;;;;;7.53;4.18;;;;;;;;;;5093831;28;20043;-59
2021/07/30 11:36:09;;;;;;;5.22;3.88;;;;;;;;;;5094098;28;20320;-59
2021/07/30 11:38:51;;;;;;;4.35;3.25;;;;;;;;;;5094330;28;20035;-59
2021/07/30 11:41:18;;;;;;;4.47;3.58;;;;;;;;;;5093677;28;20032;-59
2021/07/30 11:43:59;;;;;;;4.60;3.72;;;;;;;;;;5093813;28;20031;-59
2021/07/30 11:46:25;;;;;;;4.93;4.10;;;;;;;;;;5093736;28;20027;-59
2021/07/30 11:48:51;;;;;;;5.20;3.75;;;;;;;;;;5094009;28;20042;-59
2021/07/30 11:51:21;;;;;;;5.88;3.80;;;;;;;;;;5093527;28;20047;-59
2021/07/30 11:53:48;;;;;;;7.63;4.93;;;;;;;;;;5093675;28;20012;-59
2021/07/30 11:56:17;;;;;;;5.20;3.38;;;;;;;;;;5093698;28;20032;-59
2021/07/30 11:58:59;;;;;;;7.55;4.28;;;;;;;;;;5094685;28;20020;-59
2021/07/30 12:01:26;;;;;;;7.20;3.78;;;;;;;;;;5093669;28;20032;-59
2021/07/30 12:04:11;;;;;;;4.47;4.00;;;;;;;;;;5093974;28;20024;-59
2021/07/30 12:06:42;;;;;;;4.55;3.88;;;;;;;;;;5093905;28;20032;-59
2021/07/30 12:09:09;;;;;;;4.78;4.20;;;;;;;;;;5093610;28;20056;-59
2021/07/30 12:11:36;;;;;;;3.80;3.40;;;;;;;;;;5097429;28;20048;-59
2021/07/30 12:14:02;;;;;;;4.15;3.50;;;;;;;;;;5097970;28;20024;-59
2021/07/30 12:16:28;;;;;;;6.07;4.13;;;;;;;;;;5097679;28;20446;-59
2021/07/30 12:18:54;;;;;;;5.35;4.43;;;;;;;;;;5096990;28;20370;-59
2021/07/30 12:21:20;;;;;;;6.53;4.32;;;;;;;;;;5097500;28;20053;-59
2021/07/30 12:23:46;;;;;;;4.88;3.83;;;;;;;;;;5096962;28;20359;-59
2021/07/30 12:26:31;;;;;;;6.07;4.38;;;;;;;;;;5097245;28;20028;-59
2021/07/30 12:28:57;;;;;;;6.82;4.20;;;;;;;;;;5097164;28;20021;-59
2021/07/30 12:31:23;;;;;;;9.25;4.47;;;;;;;;;;5097471;28;20032;-59
2021/07/30 12:33:49;;;;;;;6.75;3.58;;;;;;;;;;5097021;28;20069;-59
2021/07/30 12:36:15;;;;;;;4.60;3.75;;;;;;;;;;5097039;28;20024;-59
2021/07/30 12:39:02;;;;;;;4.38;3.78;;;;;;;;;;5096991;28;20024;-59
2021/07/30 12:41:32;;;;;;;5.82;4.53;;;;;;;;;;5096916;28;20031;-59
2021/07/30 12:43:58;;;;;;;;;;;;;;;;;;5097890;28;20039;-59
2021/07/30 12:46:33;;;;;;;4.28;3.58;;;;;;;;;;5097651;28;20318;-59
2021/07/30 12:48:59;;;;;;;4.45;3.95;;;;;;;;;;5096728;28;20350;-59
2021/07/30 12:51:26;;;;;;;7.57;4.88;;;;;;;;;;5097608;28;20024;-59
2021/07/30 12:54:06;;;;;;;5.45;4.38;;;;;;;;;;5096509;28;20028;-59
2021/07/30 12:56:51;;;;;;;5.57;4.60;;;;;;;;;;5096504;28;20042;-59
2021/07/30 12:59:17;;;;;;;6.40;5.15;;;;;;;;;;5096383;28;20066;-59
2021/07/30 13:01:43;;;;;;;6.55;4.75;;;;;;;;;;5096530;28;20465;-59
2021/07/30 13:04:11;;;;;;;6.13;4.85;;;;;;;;;;5097014;28;20024;-59
2021/07/30 13:06:38;;;;;;;6.25;5.00;;;;;;;;;;5096401;28;20523;-59
2021/07/30 13:09:05;;;;;;;6.75;4.07;;;;;;;;;;5096353;28;20478;-59
2021/07/30 13:11:31;;;;;;;5.03;4.53;;;;;;;;;;5096705;28;20482;-59
2021/07/30 13:13:57;;;;;;;5.88;4.40;;;;;;;;;;5096235;28;20066;-60
2021/07/30 13:16:22;;;;;;;5.07;4.07;;;;;;;;;;5096039;28;20020;-59
2021/07/30 13:18:48;;;;;;;7.45;5.13;;;;;;;;;;5096805;28;20147;-59
2021/07/30 13:21:14;;;;;;;7.28;4.97;;;;;;;;;;5095861;28;20032;-59
2021/07/30 13:23:40;;;;;;;4.95;4.38;;;;;;;;;;5096112;28;20039;-59
2021/07/30 13:26:06;;;;;;;6.00;4.53;;;;;;;;;;5096102;28;20374;-59
2021/07/30 13:28:32;;;;;;;7.35;4.78;;;;;;;;;;5095714;28;20020;-59
2021/07/30 13:30:58;;;;;;;6.45;5.10;;;;;;;;;;5095911;28;20027;-59
2021/07/30 13:33:24;;;;;;;6.80;4.05;;;;;;;;;;5096196;28;20081;-59
2021/07/30 13:35:50;;;;;;;7.53;5.45;;;;;;;;;;5095858;28;20024;-59
2021/07/30 13:38:16;;;;;;;7.20;4.45;;;;;;;;;;5095889;28;20028;-59
2021/07/30 13:40:42;;;;;;;6.18;4.55;;;;;;;;;;5095803;28;20027;-59
2021/07/30 13:43:09;;;;;;;5.05;4.45;;;;;;;;;;5096012;28;20082;-59
2021/07/30 13:45:35;;;;;;;5.90;4.93;;;;;;;;;;5095569;28;20082;-59
2021/07/30 13:48:01;;;;;;;4.97;4.45;;;;;;;;;;5095626;28;20028;-59
2021/07/30 13:50:28;;;;;;;7.45;5.15;;;;;;;;;;5095802;28;20024;-59
2021/07/30 13:52:54;;;;;;;5.50;5.00;;;;;;;;;;5095660;28;20089;-59
2021/07/30 13:55:20;;;;;;;5.43;4.93;;;;;;;;;;5095549;28;20477;-59
2021/07/30 13:57:45;;;;;;;5.68;5.03;;;;;;;;;;5095846;28;20096;-59
2021/07/30 14:00:11;;;;;;;6.65;5.60;;;;;;;;;;5094907;28;20020;-59
2021/07/30 14:02:37;;;;;;;5.47;4.55;;;;;;;;;;5095232;28;20031;-60
2021/07/30 14:05:04;;;;;;;7.68;5.93;;;;;;;;;;5095099;28;20028;-60
2021/07/30 14:07:30;;;;;;;8.88;5.18;;;;;;;;;;5095159;28;20049;-59
2021/07/30 14:09:56;;;;;;;6.13;4.93;;;;;;;;;;5095099;28;20110;-60
2021/07/30 14:12:22;;;;;;;5.47;4.85;;;;;;;;;;5095015;28;20052;-59
2021/07/30 14:14:48;;;;;;;5.57;5.07;;;;;;;;;;5094830;28;20077;-59
2021/07/30 14:17:14;;;;;;;5.80;5.20;;;;;;;;;;5094732;28;20024;-59
2021/07/30 14:19:40;;;;;;;8.50;5.05;;;;;;;;;;5094985;28;20023;-59
2021/07/30 14:22:07;;;;;;;5.93;5.32;;;;;;;;;;5095331;28;20409;-59
2021/07/30 14:24:33;;;;;;;6.68;5.45;;;;;;;;;;5094796;28;20036;-59
2021/07/30 14:26:59;;;;;;;7.25;4.85;;;;;;;;;;5094742;28;20461;-59
2021/07/30 14:29:25;;;;;;;6.38;5.78;;;;;;;;;;5094992;28;20036;-60
2021/07/30 14:31:51;;;;;;;7.25;5.07;;;;;;;;;;5095095;28;20066;-60
2021/07/30 14:34:17;;;;;;;5.90;5.25;;;;;;;;;;5094405;28;20020;-60
2021/07/30 14:36:43;;;;;;;6.28;4.85;;;;;;;;;;5094684;28;20026;-60
2021/07/30 14:39:09;;;;;;;5.50;5.00;;;;;;;;;;5095065;28;20115;-59
2021/07/30 14:41:35;;;;;;;6.45;5.05;;;;;;;;;;5094879;28;20039;-60
2021/07/30 14:44:01;;;;;;;4.57;3.90;;;;;;;;;;5094775;28;20035;-60
2021/07/30 14:46:35;;;;;;;4.70;3.83;;;;;;;;;;5094806;28;20024;-59